createdAt,value
2023-02-14T00:00:26.349Z,-2.33
2023-02-14T00:05:48.082Z,-2.33
2023-02-14T00:11:10.702Z,-2.29
2023-02-14T00:16:33.740Z,-2.26
2023-02-14T00:21:55.986Z,-2.27
2023-02-14T00:27:17.881Z,-2.15
2023-02-14T00:32:43.608Z,-2.04
2023-02-14T00:38:06.507Z,-1.97
2023-02-14T00:43:28.583Z,-1.91
2023-02-14T00:48:52.831Z,-1.86
2023-02-14T00:54:15.424Z,-1.86
2023-02-14T00:59:37.512Z,-1.81
2023-02-14T01:04:59.902Z,-1.90
2023-02-14T01:10:22.143Z,-1.92
2023-02-14T01:15:50.209Z,-1.88
2023-02-14T01:21:24.488Z,-1.62
2023-02-14T01:26:46.524Z,-1.65
2023-02-14T01:32:08.665Z,-1.53
2023-02-14T01:37:31.584Z,-1.46
2023-02-14T01:42:54.385Z,-1.55
2023-02-14T01:48:22.501Z,-1.38
2023-02-14T01:53:44.452Z,-1.30
2023-02-14T01:59:09.787Z,-1.08
2023-02-14T02:04:38.557Z,-1.12
2023-02-14T02:10:04.211Z,-1.06
2023-02-14T02:15:28.007Z,-1.27
2023-02-14T02:21:14.787Z,-0.92
2023-02-14T02:27:14.646Z,-0.90
2023-02-14T02:33:13.648Z,-0.85
2023-02-14T02:38:54.311Z,-0.82
2023-02-14T02:44:34.552Z,-0.85
2023-02-14T02:50:45.149Z,-0.83
2023-02-14T02:56:41.857Z,-0.84
2023-02-14T03:02:16.108Z,-0.75
2023-02-14T03:07:40.315Z,-0.86
2023-02-14T03:13:40.656Z,-0.76
2023-02-14T03:19:52.997Z,-0.73
2023-02-14T03:25:43.117Z,-0.71
2023-02-14T03:31:56.801Z,-0.68
2023-02-14T03:37:54.428Z,-0.72
2023-02-14T03:43:22.550Z,-0.67
2023-02-14T03:48:46.952Z,-0.70
2023-02-14T03:54:13.320Z,-0.64
2023-02-14T03:59:36.409Z,-0.65
2023-02-14T04:05:00.511Z,-0.69
2023-02-14T04:10:24.147Z,-0.59
2023-02-14T04:15:46.517Z,-0.74
2023-02-14T04:21:08.708Z,-0.70
2023-02-14T04:26:30.866Z,-0.70
2023-02-14T04:31:52.693Z,-0.70
2023-02-14T04:37:19.711Z,-0.66
2023-02-14T04:42:41.903Z,-0.64
2023-02-14T04:48:03.924Z,-0.78
2023-02-14T04:53:26.049Z,-0.60
2023-02-14T04:58:48.187Z,-0.71
2023-02-14T05:04:11.104Z,-0.65
2023-02-14T05:09:33.344Z,-0.62
2023-02-14T05:14:56.566Z,-0.57
2023-02-14T05:20:19.409Z,-0.55
2023-02-14T05:25:42.067Z,-0.62
2023-02-14T05:31:04.483Z,-0.52
2023-02-14T05:36:26.960Z,-0.50
2023-02-14T05:41:48.827Z,-0.51
2023-02-14T05:47:13.012Z,-0.51
2023-02-14T05:52:35.763Z,-0.42
2023-02-14T05:57:57.795Z,-0.36
2023-02-14T06:03:20.068Z,-0.24
2023-02-14T06:08:42.334Z,-0.29
2023-02-14T06:14:04.663Z,-0.27
2023-02-14T06:19:26.774Z,-0.27
2023-02-14T06:24:48.899Z,-0.16
2023-02-14T06:30:15.156Z,-0.19
2023-02-14T06:35:38.785Z,-0.08
2023-02-14T06:41:05.778Z,0.08
2023-02-14T06:46:28.227Z,0.04
2023-02-14T06:51:50.944Z,-0.02
2023-02-14T06:57:13.187Z,-0.08
2023-02-14T07:02:35.303Z,-0.14
2023-02-14T07:07:58.950Z,-0.12
2023-02-14T07:13:20.896Z,-0.04
2023-02-14T07:18:42.806Z,0.11
2023-02-14T07:24:05.937Z,0.22
2023-02-14T07:29:27.716Z,0.13
2023-02-14T07:34:50.808Z,0.14
2023-02-14T07:40:15.295Z,0.14
2023-02-14T07:45:37.728Z,0.25
2023-02-14T07:51:00.875Z,0.20
2023-02-14T07:56:23.324Z,0.11
2023-02-14T08:01:45.329Z,0.06
2023-02-14T08:07:07.326Z,0.15
2023-02-14T08:12:47.392Z,0.12
2023-02-14T08:18:09.523Z,0.11
2023-02-14T08:23:31.985Z,0.11
2023-02-14T08:28:54.060Z,0.17
2023-02-14T08:34:17.749Z,0.17
2023-02-14T08:39:40.767Z,0.14
2023-02-14T08:45:03.445Z,0.17
2023-02-14T08:50:25.330Z,0.17
2023-02-14T08:55:47.898Z,0.16
2023-02-14T09:01:17.331Z,0.47
2023-02-14T09:06:40.520Z,0.43
2023-02-14T09:12:07.756Z,0.41
2023-02-14T09:17:30.647Z,0.54
2023-02-14T09:22:52.655Z,0.59
2023-02-14T09:28:14.760Z,0.69
2023-02-14T09:33:36.722Z,0.86
2023-02-14T09:38:58.784Z,0.79
2023-02-14T09:44:35.303Z,0.96
2023-02-14T09:50:00.379Z,1.15
2023-02-14T09:55:24.321Z,1.10
2023-02-14T10:00:54.324Z,0.86
2023-02-14T10:06:36.059Z,0.84
2023-02-14T10:12:01.546Z,0.82
2023-02-14T10:17:35.420Z,0.77
2023-02-14T10:23:23.518Z,0.83
2023-02-14T10:28:50.557Z,0.82
2023-02-14T10:34:21.720Z,0.76
2023-02-14T10:40:01.843Z,0.78
2023-02-14T10:45:42.633Z,0.85
2023-02-14T10:51:17.542Z,0.94
2023-02-14T10:56:44.324Z,0.86
2023-02-14T11:02:10.083Z,0.66
2023-02-14T11:07:31.871Z,0.77
2023-02-14T11:12:57.375Z,0.89
2023-02-14T11:18:25.418Z,0.84
2023-02-14T11:23:49.614Z,0.78
2023-02-14T11:29:15.483Z,0.66
2023-02-14T11:34:41.180Z,0.66
2023-02-14T11:40:05.925Z,0.77
2023-02-14T11:45:38.390Z,0.69
2023-02-14T11:51:10.329Z,0.58
2023-02-14T11:56:55.240Z,0.72
2023-02-14T12:02:44.046Z,0.68
2023-02-14T12:08:10.842Z,0.69
2023-02-14T12:13:35.627Z,0.55
2023-02-14T12:30:42.602Z,0.38
2023-02-14T12:36:17.814Z,0.55
2023-02-14T12:41:47.888Z,0.20
2023-02-14T12:47:19.669Z,0.27
2023-02-14T12:52:53.455Z,0.18
2023-02-14T12:58:50.806Z,0.09
2023-02-14T13:04:31.618Z,-0.18
2023-02-14T13:10:11.065Z,0.08
2023-02-14T13:15:51.216Z,-0.17
2023-02-14T13:21:20.004Z,-0.04
2023-02-14T13:26:45.861Z,-0.14
2023-02-14T13:32:12.451Z,-0.24
2023-02-14T13:37:35.962Z,-0.33
2023-02-14T13:43:01.379Z,-0.14
2023-02-14T13:48:29.678Z,-0.29
2023-02-14T13:53:53.060Z,-0.28
2023-02-14T13:59:36.218Z,-0.33
2023-02-14T14:04:58.502Z,-0.52
2023-02-14T14:10:47.918Z,-0.49
2023-02-14T14:16:27.729Z,-0.56
2023-02-14T14:22:03.606Z,-0.62
2023-02-14T14:27:33.617Z,-0.83
2023-02-14T14:32:55.995Z,-0.78
2023-02-14T14:38:18.300Z,-0.79
2023-02-14T14:43:41.220Z,-0.75
2023-02-14T14:49:03.741Z,-0.82
2023-02-14T14:54:29.025Z,-0.79
2023-02-14T14:59:51.139Z,-1.00
2023-02-14T15:05:40.253Z,-1.09
2023-02-14T15:11:14.955Z,-1.19
2023-02-14T15:17:05.889Z,-1.06
2023-02-14T15:22:31.032Z,-1.09
2023-02-14T15:27:53.190Z,-1.19
2023-02-14T15:33:15.584Z,-1.28
2023-02-14T15:38:41.838Z,-1.42
2023-02-14T15:44:04.600Z,-1.27
2023-02-14T15:49:52.727Z,-1.16
2023-02-14T15:55:20.816Z,-1.38
2023-02-14T16:00:45.483Z,-1.34
2023-02-14T16:06:07.868Z,-1.32
2023-02-14T16:11:38.613Z,-1.26
2023-02-14T16:17:11.759Z,-1.31
2023-02-14T16:22:38.798Z,-1.34
2023-02-14T16:28:00.921Z,-1.37
2023-02-14T16:33:37.389Z,-1.32
2023-02-14T16:39:02.938Z,-1.41
2023-02-14T16:44:28.406Z,-1.39
2023-02-14T16:49:51.158Z,-1.44
2023-02-14T16:55:20.404Z,-1.29
2023-02-14T17:00:44.370Z,-1.35
2023-02-14T17:06:21.513Z,-1.27
2023-02-14T17:11:49.952Z,-1.36
2023-02-14T17:17:12.965Z,-1.33
2023-02-14T17:22:37.662Z,-1.23
2023-02-14T17:28:01.574Z,-1.42
2023-02-14T17:33:24.588Z,-1.43
2023-02-14T17:38:47.970Z,-1.37
2023-02-14T17:44:10.363Z,-1.30
2023-02-14T17:49:32.739Z,-1.31
2023-02-14T17:54:55.175Z,-1.39
2023-02-14T18:00:32.634Z,-1.27
2023-02-14T18:06:04.784Z,-1.45
2023-02-14T18:11:28.910Z,-1.68
2023-02-14T18:16:51.944Z,-1.70
2023-02-14T18:22:14.421Z,-1.77
2023-02-14T18:27:37.725Z,-1.60
2023-02-14T18:32:59.544Z,-1.78
2023-02-14T18:38:21.392Z,-1.54
2023-02-14T18:43:44.050Z,-1.88
2023-02-14T18:49:08.803Z,-1.82
2023-02-14T18:54:31.020Z,-1.97
2023-02-14T18:59:53.316Z,-1.75
2023-02-14T19:05:15.156Z,-1.77
2023-02-14T19:10:38.763Z,-1.82
2023-02-14T19:16:00.671Z,-1.73
2023-02-14T19:21:28.081Z,-1.72
2023-02-14T19:26:49.946Z,-1.77
2023-02-14T19:32:12.281Z,-1.78
2023-02-14T19:37:34.172Z,-1.79
2023-02-14T19:42:56.126Z,-1.86
2023-02-14T19:48:18.694Z,-1.91
2023-02-14T19:53:40.394Z,-1.92
2023-02-14T19:59:28.446Z,-1.88
2023-02-14T20:04:50.547Z,-1.97
2023-02-14T20:10:13.265Z,-1.98
2023-02-14T20:15:35.749Z,-2.14
2023-02-14T20:21:03.214Z,-1.92
2023-02-14T20:26:25.585Z,-1.98
2023-02-14T20:31:51.376Z,-1.97
2023-02-14T20:37:13.675Z,-2.10
2023-02-14T20:42:35.743Z,-2.07
2023-02-14T20:47:59.246Z,-2.24
2023-02-14T20:53:21.964Z,-2.03
2023-02-14T20:58:44.201Z,-2.12
2023-02-14T21:04:06.238Z,-2.13
2023-02-14T21:09:28.846Z,-2.10
2023-02-14T21:15:03.302Z,-2.14
2023-02-14T21:20:25.335Z,-2.15
2023-02-14T21:25:47.674Z,-2.23
2023-02-14T21:31:12.046Z,-2.24
2023-02-14T21:36:38.137Z,-2.05
2023-02-14T21:42:01.477Z,-2.06
2023-02-14T21:47:24.095Z,-2.00
2023-02-14T21:52:46.790Z,-2.16
2023-02-14T21:58:08.964Z,-2.00
2023-02-14T22:03:31.393Z,-2.20
2023-02-14T22:08:55.062Z,-2.07
2023-02-14T22:14:17.094Z,-2.36
2023-02-14T22:19:39.550Z,-2.15
2023-02-14T22:25:01.789Z,-2.23
2023-02-14T22:30:24.919Z,-2.25
2023-02-14T22:35:48.966Z,-2.32
2023-02-14T22:41:15.938Z,-2.37
2023-02-14T22:46:38.939Z,-2.42
2023-02-14T22:52:01.437Z,-2.51
2023-02-14T22:57:23.514Z,-2.49
2023-02-14T23:02:45.436Z,-2.46
2023-02-14T23:08:08.095Z,-2.48
2023-02-14T23:13:48.625Z,-2.52
2023-02-14T23:19:34.223Z,-2.50
2023-02-14T23:24:58.507Z,-2.52
2023-02-14T23:30:21.060Z,-2.55
2023-02-14T23:35:43.186Z,-2.60
2023-02-14T23:41:29.968Z,-2.56
2023-02-14T23:46:54.646Z,-2.59
2023-02-14T23:52:19.660Z,-2.62
2023-02-14T23:57:41.745Z,-2.64
